sensor_id;sensor_type;location;lat;lon;timestamp;pressure;altitude;pressure_sealevel;temperature;humidity
5703;BME280;2876;51.738;10.050;2024-02-21T00:02:44;99858.34;;;8.84;90.73
5703;BME280;2876;51.738;10.050;2024-02-21T00:08:46;99857.19;;;8.86;91.06
5703;BME280;2876;51.738;10.050;2024-02-21T00:14:48;99859.97;;;8.62;92.58
5703;BME280;2876;51.738;10.050;2024-02-21T00:20:50;99859.63;;;8.65;94.41
5703;BME280;2876;51.738;10.050;2024-02-21T00:26:53;99846.19;;;8.26;96.87
5703;BME280;2876;51.738;10.050;2024-02-21T00:32:55;99851.50;;;8.34;96.60
5703;BME280;2876;51.738;10.050;2024-02-21T00:38:57;99857.25;;;8.23;97.48
5703;BME280;2876;51.738;10.050;2024-02-21T00:44:59;99840.53;;;8.12;96.98
5703;BME280;2876;51.738;10.050;2024-02-21T00:51:01;99829.41;;;8.01;97.45
5703;BME280;2876;51.738;10.050;2024-02-21T00:57:03;99835.69;;;8.16;97.37
5703;BME280;2876;51.738;10.050;2024-02-21T01:03:05;99827.19;;;8.12;96.63
5703;BME280;2876;51.738;10.050;2024-02-21T01:09:07;99817.41;;;7.97;98.14
5703;BME280;2876;51.738;10.050;2024-02-21T01:15:10;99802.69;;;8.09;97.26
5703;BME280;2876;51.738;10.050;2024-02-21T01:21:12;99801.78;;;8.25;97.23
5703;BME280;2876;51.738;10.050;2024-02-21T01:27:14;99804.47;;;8.17;96.78
5703;BME280;2876;51.738;10.050;2024-02-21T01:33:16;99794.75;;;8.32;96.43
5703;BME280;2876;51.738;10.050;2024-02-21T01:39:18;99787.59;;;8.16;97.24
5703;BME280;2876;51.738;10.050;2024-02-21T01:45:20;99779.34;;;8.42;96.09
5703;BME280;2876;51.738;10.050;2024-02-21T01:51:23;99780.00;;;8.44;95.85
5703;BME280;2876;51.738;10.050;2024-02-21T01:57:26;99775.03;;;8.33;96.62
5703;BME280;2876;51.738;10.050;2024-02-21T02:03:31;99757.56;;;8.22;97.24
5703;BME280;2876;51.738;10.050;2024-02-21T02:09:34;99757.28;;;8.01;98.55
5703;BME280;2876;51.738;10.050;2024-02-21T02:21:46;99736.56;;;8.03;99.15
5703;BME280;2876;51.738;10.050;2024-02-21T02:27:49;99720.16;;;8.14;98.99
5703;BME280;2876;51.738;10.050;2024-02-21T02:33:51;99723.00;;;8.12;99.13
5703;BME280;2876;51.738;10.050;2024-02-21T02:39:53;99715.97;;;8.20;98.28
5703;BME280;2876;51.738;10.050;2024-02-21T02:45:55;99720.28;;;8.60;97.63
5703;BME280;2876;51.738;10.050;2024-02-21T02:51:57;99696.09;;;8.22;98.00
5703;BME280;2876;51.738;10.050;2024-02-21T02:57:59;99686.34;;;8.29;98.01
5703;BME280;2876;51.738;10.050;2024-02-21T03:04:02;99667.63;;;8.37;98.03
5703;BME280;2876;51.738;10.050;2024-02-21T03:10:05;99669.28;;;8.38;97.95
5703;BME280;2876;51.738;10.050;2024-02-21T03:16:07;99665.28;;;8.03;98.89
5703;BME280;2876;51.738;10.050;2024-02-21T03:22:09;99657.16;;;8.28;98.52
5703;BME280;2876;51.738;10.050;2024-02-21T03:28:11;99676.88;;;8.27;98.37
5703;BME280;2876;51.738;10.050;2024-02-21T03:34:13;99669.47;;;8.60;97.10
5703;BME280;2876;51.738;10.050;2024-02-21T03:40:15;99671.63;;;8.42;97.43
5703;BME280;2876;51.738;10.050;2024-02-21T03:46:17;99666.63;;;8.38;97.15
5703;BME280;2876;51.738;10.050;2024-02-21T03:52:19;99653.16;;;8.55;96.54
5703;BME280;2876;51.738;10.050;2024-02-21T03:58:21;99656.22;;;8.44;97.01
5703;BME280;2876;51.738;10.050;2024-02-21T04:04:24;99648.75;;;8.39;96.78
5703;BME280;2876;51.738;10.050;2024-02-21T04:10:26;99627.50;;;8.46;96.26
5703;BME280;2876;51.738;10.050;2024-02-21T04:16:28;99615.66;;;8.40;96.26
5703;BME280;2876;51.738;10.050;2024-02-21T04:22:30;99622.44;;;8.51;95.54
5703;BME280;2876;51.738;10.050;2024-02-21T04:28:32;99625.81;;;8.68;95.11
5703;BME280;2876;51.738;10.050;2024-02-21T04:34:34;99609.53;;;8.31;95.55
5703;BME280;2876;51.738;10.050;2024-02-21T04:40:37;99599.63;;;8.63;94.68
5703;BME280;2876;51.738;10.050;2024-02-21T04:46:42;99601.53;;;8.54;94.82
5703;BME280;2876;51.738;10.050;2024-02-21T04:52:45;99622.59;;;8.49;95.02
5703;BME280;2876;51.738;10.050;2024-02-21T04:58:47;99617.91;;;8.51;94.64
5703;BME280;2876;51.738;10.050;2024-02-21T05:04:49;99604.66;;;8.58;94.15
5703;BME280;2876;51.738;10.050;2024-02-21T05:10:51;99604.25;;;8.69;93.48
5703;BME280;2876;51.738;10.050;2024-02-21T05:16:53;99598.41;;;8.66;93.51
5703;BME280;2876;51.738;10.050;2024-02-21T05:22:55;99600.31;;;8.57;92.95
5703;BME280;2876;51.738;10.050;2024-02-21T05:28:57;99605.50;;;8.58;93.46
5703;BME280;2876;51.738;10.050;2024-02-21T05:35:01;99599.06;;;8.45;93.88
5703;BME280;2876;51.738;10.050;2024-02-21T05:41:04;99615.44;;;8.50;93.79
5703;BME280;2876;51.738;10.050;2024-02-21T05:47:06;99621.66;;;8.42;94.27
5703;BME280;2876;51.738;10.050;2024-02-21T05:53:12;99629.13;;;8.24;94.70
5703;BME280;2876;51.738;10.050;2024-02-21T05:59:14;99640.38;;;8.34;95.25
5703;BME280;2876;51.738;10.050;2024-02-21T06:05:16;99639.97;;;8.22;95.71
5703;BME280;2876;51.738;10.050;2024-02-21T06:11:18;99634.44;;;8.24;95.41
5703;BME280;2876;51.738;10.050;2024-02-21T06:17:21;99614.25;;;8.21;95.80
5703;BME280;2876;51.738;10.050;2024-02-21T06:23:22;99584.44;;;8.41;95.42
5703;BME280;2876;51.738;10.050;2024-02-21T06:29:24;99582.59;;;8.41;94.98
5703;BME280;2876;51.738;10.050;2024-02-21T06:35:26;99563.56;;;8.36;94.04
5703;BME280;2876;51.738;10.050;2024-02-21T06:41:29;99569.31;;;8.48;93.47
5703;BME280;2876;51.738;10.050;2024-02-21T06:47:32;99548.19;;;8.38;93.88
5703;BME280;2876;51.738;10.050;2024-02-21T06:53:34;99562.69;;;8.35;93.50
5703;BME280;2876;51.738;10.050;2024-02-21T06:59:37;99556.44;;;8.51;93.05
5703;BME280;2876;51.738;10.050;2024-02-21T07:05:39;99563.63;;;8.28;93.49
5703;BME280;2876;51.738;10.050;2024-02-21T07:11:41;99564.69;;;8.19;94.25
5703;BME280;2876;51.738;10.050;2024-02-21T07:17:43;99558.09;;;8.29;94.11
5703;BME280;2876;51.738;10.050;2024-02-21T07:23:45;99561.31;;;8.48;93.08
5703;BME280;2876;51.738;10.050;2024-02-21T07:29:47;99556.09;;;8.31;93.48
5703;BME280;2876;51.738;10.050;2024-02-21T07:35:51;99534.59;;;8.62;92.71
5703;BME280;2876;51.738;10.050;2024-02-21T07:41:53;99537.81;;;8.58;92.04
5703;BME280;2876;51.738;10.050;2024-02-21T07:47:55;99524.84;;;8.70;92.13
5703;BME280;2876;51.738;10.050;2024-02-21T07:53:57;99536.03;;;8.88;91.44
5703;BME280;2876;51.738;10.050;2024-02-21T07:59:59;99544.72;;;9.05;89.28
5703;BME280;2876;51.738;10.050;2024-02-21T08:06:03;99546.34;;;9.21;88.87
5703;BME280;2876;51.738;10.050;2024-02-21T08:12:05;99545.03;;;9.61;87.51
5703;BME280;2876;51.738;10.050;2024-02-21T08:18:08;99547.34;;;9.49;87.68
5703;BME280;2876;51.738;10.050;2024-02-21T08:24:10;99540.28;;;9.78;85.43
5703;BME280;2876;51.738;10.050;2024-02-21T08:30:13;99537.06;;;9.68;86.30
5703;BME280;2876;51.738;10.050;2024-02-21T08:36:21;99538.78;;;9.75;85.25
5703;BME280;2876;51.738;10.050;2024-02-21T08:42:23;99531.72;;;9.68;84.40
5703;BME280;2876;51.738;10.050;2024-02-21T08:48:25;99527.59;;;9.50;84.76
5703;BME280;2876;51.738;10.050;2024-02-21T08:54:27;99519.72;;;9.63;85.13
5703;BME280;2876;51.738;10.050;2024-02-21T09:00:29;99493.97;;;9.84;83.56
5703;BME280;2876;51.738;10.050;2024-02-21T09:06:31;99488.03;;;9.67;83.30
5703;BME280;2876;51.738;10.050;2024-02-21T09:12:35;99492.78;;;9.86;83.26
5703;BME280;2876;51.738;10.050;2024-02-21T09:18:37;99502.31;;;9.74;83.32
5703;BME280;2876;51.738;10.050;2024-02-21T09:24:40;99484.47;;;9.81;81.59
5703;BME280;2876;51.738;10.050;2024-02-21T09:30:42;99480.00;;;9.88;81.23
5703;BME280;2876;51.738;10.050;2024-02-21T09:36:44;99478.69;;;9.99;81.36
5703;BME280;2876;51.738;10.050;2024-02-21T09:42:47;99465.31;;;9.84;81.65
5703;BME280;2876;51.738;10.050;2024-02-21T09:49:31;99461.75;;;9.99;80.43
5703;BME280;2876;51.738;10.050;2024-02-21T09:55:40;99457.38;;;9.91;81.07
5703;BME280;2876;51.738;10.050;2024-02-21T10:01:44;99462.47;;;10.29;79.98
5703;BME280;2876;51.738;10.050;2024-02-21T10:07:48;99459.63;;;10.15;80.66
5703;BME280;2876;51.738;10.050;2024-02-21T10:13:50;99446.22;;;10.37;79.93
5703;BME280;2876;51.738;10.050;2024-02-21T10:19:55;99448.78;;;10.24;80.53
5703;BME280;2876;51.738;10.050;2024-02-21T10:26:07;99454.41;;;10.57;79.83
5703;BME280;2876;51.738;10.050;2024-02-21T10:32:11;99449.84;;;10.51;79.53
5703;BME280;2876;51.738;10.050;2024-02-21T10:38:14;99429.50;;;10.63;79.02
5703;BME280;2876;51.738;10.050;2024-02-21T10:44:17;99405.13;;;10.30;79.79
5703;BME280;2876;51.738;10.050;2024-02-21T10:50:20;99398.44;;;10.82;78.25
5703;BME280;2876;51.738;10.050;2024-02-21T10:56:32;99392.94;;;10.55;77.83
5703;BME280;2876;51.738;10.050;2024-02-21T11:02:38;99373.69;;;10.86;77.82
5703;BME280;2876;51.738;10.050;2024-02-21T11:08:41;99377.69;;;11.17;77.70
5703;BME280;2876;51.738;10.050;2024-02-21T11:14:43;99359.44;;;10.86;75.31
5703;BME280;2876;51.738;10.050;2024-02-21T11:20:50;99345.22;;;10.99;75.94
5703;BME280;2876;51.738;10.050;2024-02-21T11:26:55;99332.28;;;11.09;74.72
5703;BME280;2876;51.738;10.050;2024-02-21T11:33:06;99304.22;;;11.51;73.16
5703;BME280;2876;51.738;10.050;2024-02-21T11:39:08;99297.81;;;11.79;73.30
5703;BME280;2876;51.738;10.050;2024-02-21T11:45:11;99285.84;;;11.81;73.02
5703;BME280;2876;51.738;10.050;2024-02-21T11:51:25;99282.50;;;11.79;74.47
5703;BME280;2876;51.738;10.050;2024-02-21T11:57:27;99268.88;;;12.01;73.00
5703;BME280;2876;51.738;10.050;2024-02-21T12:03:30;99271.59;;;11.67;74.12
5703;BME280;2876;51.738;10.050;2024-02-21T12:09:34;99249.28;;;11.54;74.13
5703;BME280;2876;51.738;10.050;2024-02-21T12:15:38;99227.16;;;11.58;74.58
5703;BME280;2876;51.738;10.050;2024-02-21T12:21:40;99229.00;;;11.71;74.45
5703;BME280;2876;51.738;10.050;2024-02-21T12:27:42;99215.97;;;11.95;74.27
5703;BME280;2876;51.738;10.050;2024-02-21T12:33:44;99207.09;;;11.87;73.91
5703;BME280;2876;51.738;10.050;2024-02-21T12:39:46;99205.63;;;11.78;74.05
5703;BME280;2876;51.738;10.050;2024-02-21T12:45:49;99210.94;;;12.11;72.42
5703;BME280;2876;51.738;10.050;2024-02-21T12:51:50;99202.91;;;12.05;72.84
5703;BME280;2876;51.738;10.050;2024-02-21T12:57:52;99190.56;;;11.77;72.17
5703;BME280;2876;51.738;10.050;2024-02-21T13:03:54;99192.41;;;11.83;72.63
5703;BME280;2876;51.738;10.050;2024-02-21T13:09:59;99195.94;;;11.57;73.76
5703;BME280;2876;51.738;10.050;2024-02-21T13:16:02;99179.47;;;11.40;74.01
5703;BME280;2876;51.738;10.050;2024-02-21T13:22:04;99169.50;;;11.61;74.87
5703;BME280;2876;51.738;10.050;2024-02-21T13:28:06;99173.28;;;11.13;76.20
5703;BME280;2876;51.738;10.050;2024-02-21T13:34:08;99152.63;;;11.21;75.56
5703;BME280;2876;51.738;10.050;2024-02-21T13:40:13;99134.63;;;11.34;76.31
5703;BME280;2876;51.738;10.050;2024-02-21T13:46:15;99115.47;;;11.11;76.44
5703;BME280;2876;51.738;10.050;2024-02-21T13:52:17;99111.38;;;10.69;76.76
5703;BME280;2876;51.738;10.050;2024-02-21T13:58:21;99095.47;;;10.87;77.45
5703;BME280;2876;51.738;10.050;2024-02-21T14:04:23;99082.25;;;10.85;77.09
5703;BME280;2876;51.738;10.050;2024-02-21T14:10:25;99067.34;;;11.16;76.07
5703;BME280;2876;51.738;10.050;2024-02-21T14:16:28;99062.78;;;11.30;75.59
5703;BME280;2876;51.738;10.050;2024-02-21T14:22:31;99051.06;;;11.04;76.40
5703;BME280;2876;51.738;10.050;2024-02-21T14:28:33;99047.13;;;11.13;75.60
5703;BME280;2876;51.738;10.050;2024-02-21T14:34:35;99022.53;;;11.16;76.18
5703;BME280;2876;51.738;10.050;2024-02-21T14:40:37;98969.56;;;10.92;76.29
5703;BME280;2876;51.738;10.050;2024-02-21T14:46:40;98974.25;;;11.03;77.32
5703;BME280;2876;51.738;10.050;2024-02-21T14:52:42;98933.00;;;10.98;77.58
5703;BME280;2876;51.738;10.050;2024-02-21T14:58:45;98896.50;;;10.90;77.89
5703;BME280;2876;51.738;10.050;2024-02-21T15:04:52;98895.88;;;10.95;77.82
5703;BME280;2876;51.738;10.050;2024-02-21T15:10:54;98898.69;;;11.06;78.02
5703;BME280;2876;51.738;10.050;2024-02-21T15:16:56;98877.56;;;10.72;78.92
5703;BME280;2876;51.738;10.050;2024-02-21T15:22:59;98857.59;;;10.68;78.73
5703;BME280;2876;51.738;10.050;2024-02-21T15:29:01;98845.38;;;11.16;77.78
5703;BME280;2876;51.738;10.050;2024-02-21T15:35:05;98840.78;;;10.85;78.83
5703;BME280;2876;51.738;10.050;2024-02-21T15:41:10;98823.81;;;10.98;78.50
5703;BME280;2876;51.738;10.050;2024-02-21T15:47:12;98823.88;;;10.85;77.22
5703;BME280;2876;51.738;10.050;2024-02-21T15:53:14;98822.22;;;10.90;77.02
5703;BME280;2876;51.738;10.050;2024-02-21T15:59:17;98801.31;;;10.99;77.13
5703;BME280;2876;51.738;10.050;2024-02-21T16:05:19;98778.91;;;10.80;77.69
5703;BME280;2876;51.738;10.050;2024-02-21T16:11:21;98740.53;;;10.41;78.52
5703;BME280;2876;51.738;10.050;2024-02-21T16:17:23;98723.34;;;9.98;79.58
5703;BME280;2876;51.738;10.050;2024-02-21T16:23:25;98686.97;;;9.70;80.62
5703;BME280;2876;51.738;10.050;2024-02-21T16:29:27;98697.72;;;9.50;81.39
5703;BME280;2876;51.738;10.050;2024-02-21T16:35:29;98692.97;;;9.52;81.65
5703;BME280;2876;51.738;10.050;2024-02-21T16:41:31;98688.69;;;8.92;83.56
5703;BME280;2876;51.738;10.050;2024-02-21T16:47:33;98670.38;;;8.95;83.19
5703;BME280;2876;51.738;10.050;2024-02-21T16:53:36;98696.69;;;8.78;84.27
5703;BME280;2876;51.738;10.050;2024-02-21T16:59:39;98689.66;;;8.71;84.59
5703;BME280;2876;51.738;10.050;2024-02-21T17:05:41;98693.53;;;8.48;85.80
5703;BME280;2876;51.738;10.050;2024-02-21T17:11:43;98733.44;;;8.56;85.77
5703;BME280;2876;51.738;10.050;2024-02-21T17:17:45;98735.72;;;8.66;85.51
5703;BME280;2876;51.738;10.050;2024-02-21T17:23:48;98718.88;;;8.59;86.27
5703;BME280;2876;51.738;10.050;2024-02-21T17:29:50;98722.53;;;8.58;87.20
5703;BME280;2876;51.738;10.050;2024-02-21T17:35:52;98699.13;;;8.60;87.43
5703;BME280;2876;51.738;10.050;2024-02-21T17:41:55;98695.84;;;8.71;87.41
5703;BME280;2876;51.738;10.050;2024-02-21T17:47:58;98695.22;;;8.76;87.75
5703;BME280;2876;51.738;10.050;2024-02-21T17:54:00;98682.88;;;8.61;87.94
5703;BME280;2876;51.738;10.050;2024-02-21T18:00:03;98671.16;;;8.62;87.96
5703;BME280;2876;51.738;10.050;2024-02-21T18:06:05;98666.66;;;8.63;88.02
5703;BME280;2876;51.738;10.050;2024-02-21T18:12:08;98649.56;;;8.71;87.37
5703;BME280;2876;51.738;10.050;2024-02-21T18:18:10;98641.75;;;8.69;87.16
5703;BME280;2876;51.738;10.050;2024-02-21T18:24:13;98634.97;;;8.67;87.23
5703;BME280;2876;51.738;10.050;2024-02-21T18:30:15;98630.84;;;8.71;86.51
5703;BME280;2876;51.738;10.050;2024-02-21T18:36:20;98605.97;;;8.70;86.58
5703;BME280;2876;51.738;10.050;2024-02-21T18:42:23;98590.34;;;8.67;86.56
5703;BME280;2876;51.738;10.050;2024-02-21T18:48:25;98584.19;;;8.67;86.15
5703;BME280;2876;51.738;10.050;2024-02-21T18:54:27;98571.25;;;8.77;85.42
5703;BME280;2876;51.738;10.050;2024-02-21T19:00:29;98563.41;;;8.82;84.88
5703;BME280;2876;51.738;10.050;2024-02-21T19:06:31;98549.63;;;8.85;84.35
5703;BME280;2876;51.738;10.050;2024-02-21T19:12:33;98539.56;;;8.74;84.40
5703;BME280;2876;51.738;10.050;2024-02-21T19:18:35;98538.13;;;8.78;82.85
5703;BME280;2876;51.738;10.050;2024-02-21T19:24:39;98528.81;;;9.00;81.07
5703;BME280;2876;51.738;10.050;2024-02-21T19:30:41;98498.88;;;9.36;78.03
5703;BME280;2876;51.738;10.050;2024-02-21T19:36:43;98474.78;;;9.36;76.91
5703;BME280;2876;51.738;10.050;2024-02-21T19:42:46;98452.66;;;9.54;76.43
5703;BME280;2876;51.738;10.050;2024-02-21T19:48:48;98443.34;;;9.63;74.87
5703;BME280;2876;51.738;10.050;2024-02-21T19:54:52;98439.22;;;9.61;75.51
5703;BME280;2876;51.738;10.050;2024-02-21T20:00:55;98424.25;;;9.53;74.60
5703;BME280;2876;51.738;10.050;2024-02-21T20:06:58;98420.81;;;9.78;74.49
5703;BME280;2876;51.738;10.050;2024-02-21T20:13:01;98418.13;;;9.78;73.10
5703;BME280;2876;51.738;10.050;2024-02-21T20:19:03;98433.56;;;9.76;72.08
5703;BME280;2876;51.738;10.050;2024-02-21T20:25:06;98410.84;;;9.85;71.90
5703;BME280;2876;51.738;10.050;2024-02-21T20:31:08;98384.28;;;9.83;72.53
5703;BME280;2876;51.738;10.050;2024-02-21T20:37:10;98364.31;;;9.86;74.78
5703;BME280;2876;51.738;10.050;2024-02-21T20:43:13;98353.78;;;9.59;76.70
5703;BME280;2876;51.738;10.050;2024-02-21T20:49:15;98332.16;;;9.61;77.21
5703;BME280;2876;51.738;10.050;2024-02-21T20:55:17;98307.56;;;9.46;79.55
5703;BME280;2876;51.738;10.050;2024-02-21T21:01:26;98291.81;;;9.31;82.64
5703;BME280;2876;51.738;10.050;2024-02-21T21:07:28;98286.34;;;9.19;83.62
5703;BME280;2876;51.738;10.050;2024-02-21T21:13:30;98262.38;;;9.06;84.08
5703;BME280;2876;51.738;10.050;2024-02-21T21:19:37;98251.28;;;9.02;85.31
5703;BME280;2876;51.738;10.050;2024-02-21T21:25:39;98245.75;;;8.97;85.75
5703;BME280;2876;51.738;10.050;2024-02-21T21:31:41;98234.19;;;9.03;84.47
5703;BME280;2876;51.738;10.050;2024-02-21T21:37:43;98229.06;;;9.02;85.50
5703;BME280;2876;51.738;10.050;2024-02-21T21:43:45;98205.16;;;8.82;86.65
5703;BME280;2876;51.738;10.050;2024-02-21T21:49:47;98191.38;;;9.10;87.14
5703;BME280;2876;51.738;10.050;2024-02-21T21:55:49;98188.56;;;8.98;88.45
5703;BME280;2876;51.738;10.050;2024-02-21T22:01:51;98167.97;;;8.74;90.03
5703;BME280;2876;51.738;10.050;2024-02-21T22:07:54;98159.56;;;8.70;90.51
5703;BME280;2876;51.738;10.050;2024-02-21T22:13:56;98157.84;;;8.82;91.51
5703;BME280;2876;51.738;10.050;2024-02-21T22:19:58;98141.66;;;8.77;91.73
5703;BME280;2876;51.738;10.050;2024-02-21T22:26:00;98125.75;;;8.82;91.68
5703;BME280;2876;51.738;10.050;2024-02-21T22:32:02;98114.81;;;8.91;91.84
5703;BME280;2876;51.738;10.050;2024-02-21T22:38:04;98112.66;;;8.74;92.08
5703;BME280;2876;51.738;10.050;2024-02-21T22:44:06;98104.22;;;8.77;92.05
5703;BME280;2876;51.738;10.050;2024-02-21T22:50:09;98097.16;;;8.83;92.03
5703;BME280;2876;51.738;10.050;2024-02-21T22:56:11;98085.94;;;8.74;91.76
5703;BME280;2876;51.738;10.050;2024-02-21T23:02:13;98081.63;;;8.73;91.31
5703;BME280;2876;51.738;10.050;2024-02-21T23:08:15;98070.31;;;8.96;90.82
5703;BME280;2876;51.738;10.050;2024-02-21T23:14:17;98052.72;;;9.07;90.14
5703;BME280;2876;51.738;10.050;2024-02-21T23:20:20;98046.94;;;9.10;90.20
5703;BME280;2876;51.738;10.050;2024-02-21T23:26:29;98034.66;;;9.02;90.57
5703;BME280;2876;51.738;10.050;2024-02-21T23:32:32;98007.78;;;9.15;90.62
5703;BME280;2876;51.738;10.050;2024-02-21T23:38:34;98004.03;;;8.98;91.33
5703;BME280;2876;51.738;10.050;2024-02-21T23:44:36;97993.06;;;9.06;91.38
5703;BME280;2876;51.738;10.050;2024-02-21T23:50:38;97976.13;;;8.94;92.24
5703;BME280;2876;51.738;10.050;2024-02-21T23:56:44;97959.84;;;9.14;91.52
